Disclaimer

Please do not use the information listed here in-flight or in-navigation, as they are not provided to us by the airports but are provided by volunteers, so they might be outdated.

Search


Regions


Airport information page

Radio informations:
Tower (TWR) - 118.3 MHz

Airport informations:
Latitude: 58° 57' 28.00" N
Longitude: 002° 54' 18.00" W
Elevation: 50 feet - 15 meters
Operating hours: Remarks
Operating agency: Civil government, landing fees and diplomatic clearance may be required
Timezone: UTC 0(+1DT) - Last Sunday in March to last Sunday in October
Fuel: Jet A1, without icing nhibitor.

100/130 MIL Spec, low lead, aviation gasoline (BLUE)

Runway information:
06/24 - 3881 x 151 feet< - >1183 x 46 meters
09/27 - 4685 x 151 feet< - >1428 x 46 meters
15/33 - 2231 x 59 feet< - >680 x 18 meters

Recent METARs:
EGPA 181950Z 16011KT 9999 FEW012 08/07 Q1035
EGPA 182020Z AUTO 16011KT 9999 FEW013/// 08/07 Q1034
EGPA 182050Z AUTO 16010KT 9999 BKN013/// 08/07 Q1034

Airport on the map: